Time;durP1;ratioP1;P1;durP2;ratioP2;P2;SDS_P1;SDS_P2;PMS_P1;PMS_P2;Temp;Humidity;BMP_temperature;BMP_pressure;BME280_temperature;BME280_humidity;BME280_pressure;Samples;Min_cycle;Max_cycle;Signal;HPM_P1;HPM_P2
2023/07/20 00:01:45;;;;;;;7.63;3.67;;;18.30;99.90;;;;;;5091127;28;20633;-50
2023/07/20 00:04:11;;;;;;;5.80;3.67;;;18.30;99.90;;;;;;5091047;28;20188;-50
2023/07/20 00:06:40;;;;;;;4.90;3.50;;;18.20;99.90;;;;;;5073063;28;20161;-49
2023/07/20 00:09:06;;;;;;;6.63;4.00;;;18.40;99.90;;;;;;5091314;28;20170;-50
2023/07/20 00:11:36;;;;;;;8.52;4.00;;;18.30;99.90;;;;;;5090947;28;20822;-49
2023/07/20 00:14:02;;;;;;;7.15;4.13;;;18.30;99.90;;;;;;5090981;28;20177;-49
2023/07/20 00:16:27;;;;;;;4.68;3.28;;;18.10;99.90;;;;;;5057068;28;20522;-49
2023/07/20 00:18:53;;;;;;;6.70;4.03;;;18.10;99.90;;;;;;5075080;28;20175;-49
2023/07/20 00:21:18;;;;;;;11.82;4.38;;;19.40;99.90;;;;;;5074950;28;20626;-49
2023/07/20 00:23:44;;;;;;;7.57;3.80;;;18.00;99.90;;;;;;5074762;28;20184;-49
2023/07/20 00:26:10;;;;;;;5.28;3.53;;;17.90;99.90;;;;;;5074478;28;20691;-49
2023/07/20 00:28:35;;;;;;;7.50;3.78;;;18.10;99.90;;;;;;5056533;28;20176;-49
2023/07/20 00:31:01;;;;;;;7.85;3.85;;;18.00;99.90;;;;;;5074528;28;20162;-50
2023/07/20 00:33:26;;;;;;;7.00;3.80;;;18.00;99.90;;;;;;5074304;28;20254;-49
2023/07/20 00:35:52;;;;;;;7.28;3.85;;;18.00;99.90;;;;;;5092757;28;20227;-50
2023/07/20 00:38:18;;;;;;;6.22;3.95;;;18.00;99.90;;;;;;5094623;28;20637;-50
2023/07/20 00:40:43;;;;;;;7.30;3.72;;;18.00;99.90;;;;;;5076467;28;20165;-49
2023/07/20 00:43:09;;;;;;;4.43;3.78;;;18.00;99.90;;;;;;5085744;28;20178;-50
2023/07/20 00:45:36;;;;;;;6.40;3.70;;;17.90;99.90;;;;;;5074152;28;20174;-49
2023/07/20 00:48:04;;;;;;;4.93;3.67;;;17.90;99.90;;;;;;5074322;28;20162;-50
2023/07/20 00:50:30;;;;;;;5.85;4.15;;;17.90;99.90;;;;;;5074313;28;20618;-50
2023/07/20 00:52:56;;;;;;;6.78;3.78;;;18.00;99.90;;;;;;5073952;28;20209;-50
2023/07/20 00:55:24;;;;;;;8.68;4.00;;;18.00;99.90;;;;;;5089815;28;20169;-50
2023/07/20 00:57:50;;;;;;;6.05;3.80;;;17.90;99.90;;;;;;5074347;28;20172;-49
2023/07/20 01:00:16;;;;;;;7.95;4.10;;;17.90;99.90;;;;;;5073891;28;20237;-50
2023/07/20 01:02:41;;;;;;;7.82;3.65;;;17.90;99.90;;;;;;5073778;28;20261;-49
2023/07/20 01:05:08;;;;;;;10.15;4.45;;;17.90;99.90;;;;;;5073797;28;20177;-49
2023/07/20 01:07:43;;;;;;;10.68;3.65;;;17.90;99.90;;;;;;5056067;28;20638;-49
2023/07/20 01:10:31;;;;;;;4.97;3.30;;;18.00;99.90;;;;;;5055758;28;20208;-49
2023/07/20 01:12:57;;;;;;;5.13;3.30;;;17.90;99.90;;;;;;5073379;28;20643;-49
2023/07/20 01:15:23;;;;;;;4.57;3.35;;;17.90;99.90;;;;;;5091777;28;20248;-50
2023/07/20 01:17:48;;;;;;;9.95;3.47;;;18.00;99.90;;;;;;5094164;28;20248;-49
2023/07/20 01:20:16;;;;;;;7.25;3.75;;;17.90;99.90;;;;;;5093729;28;20226;-49
2023/07/20 01:23:13;;;;;;;6.13;3.47;;;17.90;99.90;;;;;;5093324;28;20172;-49
2023/07/20 01:26:20;;;;;;;7.15;3.33;;;17.90;99.90;;;;;;5093252;28;20170;-49
2023/07/20 01:29:04;;;;;;;5.95;3.10;;;17.90;99.90;;;;;;5075379;28;20633;-49
2023/07/20 01:31:33;;;;;;;8.90;2.92;;;17.90;99.90;;;;;;5093685;28;20252;-49
2023/07/20 01:34:01;;;;;;;7.85;3.20;;;17.90;99.90;;;;;;5082738;28;20193;-49
2023/07/20 01:36:30;;;;;;;5.18;3.15;;;17.90;99.90;;;;;;5074065;28;20181;-49
2023/07/20 01:38:56;;;;;;;9.60;3.28;;;17.90;99.90;;;;;;5073141;28;20201;-49
2023/07/20 01:41:22;;;;;;;5.85;2.83;;;17.90;99.90;;;;;;5073471;28;20252;-50
2023/07/20 01:43:48;;;;;;;11.70;3.47;;;17.90;99.90;;;;;;5055554;28;20166;-50
2023/07/20 01:46:14;;;;;;;4.85;3.03;;;17.80;99.90;;;;;;5073348;28;20173;-50
2023/07/20 01:48:39;;;;;;;7.97;3.33;;;17.80;99.90;;;;;;5072892;28;20236;-50
2023/07/20 01:51:05;;;;;;;4.78;3.00;;;17.80;99.90;;;;;;5072913;28;20178;-49
2023/07/20 01:53:30;;;;;;;9.15;3.63;;;17.70;99.90;;;;;;5081365;28;20201;-49
2023/07/20 01:55:57;;;;;;;2.85;2.60;;;17.60;99.90;;;;;;5074931;28;20165;-49
2023/07/20 01:58:23;;;;;;;5.68;3.15;;;17.60;99.90;;;;;;5093045;28;20212;-49
2023/07/20 02:00:49;;;;;;;5.72;3.10;;;17.50;99.90;;;;;;5093586;28;20204;-49
2023/07/20 02:03:14;;;;;;;4.25;2.83;;;17.40;99.90;;;;;;5092852;28;20205;-49
2023/07/20 02:05:42;;;;;;;3.83;2.78;;;17.40;99.90;;;;;;5074685;28;20161;-49
2023/07/20 02:08:08;;;;;;;4.90;2.85;;;17.50;99.90;;;;;;5092777;28;20161;-49
2023/07/20 02:10:34;;;;;;;3.45;2.80;;;17.50;99.90;;;;;;5092844;28;20568;-49
2023/07/20 02:13:00;;;;;;;4.15;2.83;;;17.40;99.90;;;;;;5092688;28;20220;-49
2023/07/20 02:15:27;;;;;;;4.90;3.40;;;17.40;99.90;;;;;;5092724;28;20169;-49
2023/07/20 02:17:52;;;;;;;3.83;3.13;;;17.30;99.90;;;;;;5093022;28;20168;-50
2023/07/20 02:20:19;;;;;;;6.78;3.75;;;17.30;99.90;;;;;;5092651;28;20173;-49
2023/07/20 02:22:44;;;;;;;6.82;2.97;;;17.20;99.90;;;;;;5092854;28;20192;-49
2023/07/20 02:25:10;;;;;;;5.00;3.58;;;17.20;99.90;;;;;;5092506;28;20618;-49
2023/07/20 02:27:36;;;;;;;8.45;3.45;;;17.20;99.90;;;;;;5092471;28;20184;-50
2023/07/20 02:30:03;;;;;;;3.53;3.22;;;17.20;99.90;;;;;;5092403;28;20185;-49
2023/07/20 02:32:29;;;;;;;7.55;3.72;;;17.20;99.90;;;;;;5092340;28;20687;-49
2023/07/20 02:34:55;;;;;;;6.45;3.63;;;17.10;99.90;;;;;;5091998;28;20636;-49
2023/07/20 02:37:20;;;;;;;5.43;3.55;;;17.10;99.90;;;;;;5092309;28;20170;-49
2023/07/20 02:39:46;;;;;;;7.53;4.38;;;17.10;99.90;;;;;;5080987;28;20331;-50
2023/07/20 02:42:11;;;;;;;6.55;3.58;;;17.10;99.90;;;;;;5071455;28;20588;-50
2023/07/20 02:44:37;;;;;;;7.15;3.75;;;17.00;99.90;;;;;;5071870;28;20552;-49
2023/07/20 02:47:02;;;;;;;7.13;3.65;;;16.90;99.90;;;;;;5071862;28;20633;-49
2023/07/20 02:49:28;;;;;;;8.68;3.50;;;17.00;99.90;;;;;;5071828;28;20622;-50
2023/07/20 02:51:54;;;;;;;11.63;4.25;;;16.90;99.90;;;;;;5072091;28;20207;-49
2023/07/20 02:54:19;;;;;;;6.88;3.90;;;16.90;99.90;;;;;;5072298;28;20186;-49
2023/07/20 02:56:45;;;;;;;6.72;4.07;;;16.80;99.90;;;;;;5071752;28;20165;-50
2023/07/20 02:59:10;;;;;;;4.70;3.20;;;16.80;99.90;;;;;;5079007;28;20169;-50
2023/07/20 03:01:36;;;;;;;8.43;4.53;;;16.80;99.90;;;;;;5091550;28;20177;-49
2023/07/20 03:04:02;;;;;;;7.63;4.10;;;16.80;99.90;;;;;;5092125;28;20176;-50
2023/07/20 03:06:28;;;;;;;5.82;4.25;;;16.80;99.90;;;;;;5091427;28;20540;-49
2023/07/20 03:08:53;;;;;;;5.32;3.65;;;16.90;99.90;;;;;;5091762;28;20161;-49
2023/07/20 03:11:20;;;;;;;10.27;4.30;;;16.90;99.90;;;;;;5092049;28;20326;-50
2023/07/20 03:13:46;;;;;;;7.07;3.38;;;16.90;99.90;;;;;;5092016;28;20173;-50
2023/07/20 03:16:15;;;;;;;5.75;3.70;;;16.90;99.90;;;;;;5091775;28;20240;-50
2023/07/20 03:18:43;;;;;;;5.22;3.60;;;16.80;99.90;;;;;;5085845;28;20174;-50
2023/07/20 03:21:11;;;;;;;6.43;3.67;;;16.80;99.90;;;;;;5053515;28;20181;-50
2023/07/20 03:23:37;;;;;;;6.63;3.83;;;16.80;99.90;;;;;;5071415;28;20166;-49
2023/07/20 03:26:03;;;;;;;6.53;4.13;;;16.80;99.90;;;;;;5071402;28;20170;-49
2023/07/20 03:28:28;;;;;;;5.80;4.00;;;16.80;99.90;;;;;;5086879;28;20635;-49
2023/07/20 03:30:55;;;;;;;5.10;3.47;;;16.80;99.90;;;;;;5091484;28;20165;-49
2023/07/20 03:33:30;;;;;;;7.68;4.57;;;16.80;99.90;;;;;;5091863;28;20231;-49
2023/07/20 03:35:56;;;;;;;7.15;4.30;;;16.80;99.90;;;;;;5091020;28;20164;-49
2023/07/20 03:38:23;;;;;;;6.00;4.20;;;16.70;99.90;;;;;;5091841;28;20176;-49
2023/07/20 03:40:59;;;;;;;7.43;3.83;;;16.70;99.90;;;;;;5091896;28;20165;-50
2023/07/20 03:43:26;;;;;;;8.82;3.97;;;16.70;99.90;;;;;;5091673;28;20520;-49
2023/07/20 03:45:52;;;;;;;6.28;4.07;;;16.70;99.90;;;;;;5073420;28;20221;-49
2023/07/20 03:48:24;;;;;;;6.63;3.78;;;16.70;99.90;;;;;;5091779;28;20191;-49
2023/07/20 03:50:51;;;;;;;6.93;3.95;;;16.70;99.90;;;;;;5077370;28;20311;-49
2023/07/20 03:53:17;;;;;;;5.57;3.53;;;16.80;99.90;;;;;;5095393;28;20201;-49
2023/07/20 03:55:53;;;;;;;10.25;5.07;;;16.80;99.90;;;;;;5086581;28;20525;-50
2023/07/20 03:58:19;;;;;;;5.28;3.50;;;16.80;99.90;;;;;;5075389;28;20614;-49
2023/07/20 04:00:50;;;;;;;8.45;3.80;;;16.80;99.90;;;;;;5075161;28;20170;-49
2023/07/20 04:03:16;;;;;;;9.70;4.18;;;16.80;99.90;;;;;;5074900;28;20633;-49
2023/07/20 04:05:42;;;;;;;4.95;3.60;;;16.70;99.90;;;;;;5074825;28;20181;-49
2023/07/20 04:08:08;;;;;;;6.40;3.67;;;16.70;99.90;;;;;;5074756;28;20200;-49
2023/07/20 04:10:34;;;;;;;7.07;4.00;;;16.70;99.90;;;;;;5083205;28;20209;-49
2023/07/20 04:13:00;;;;;;;9.73;4.10;;;16.70;99.90;;;;;;5074391;28;20259;-49
2023/07/20 04:15:26;;;;;;;9.55;4.32;;;16.70;99.90;;;;;;5084117;28;20185;-49
2023/07/20 04:17:51;;;;;;;10.48;3.88;;;16.80;99.90;;;;;;5095404;28;20157;-49
2023/07/20 04:20:18;;;;;;;8.93;3.90;;;14.50;99.90;;;;;;5095263;28;20161;-50
2023/07/20 04:22:43;;;;;;;7.72;4.18;;;16.70;99.90;;;;;;5094601;28;20173;-49
2023/07/20 04:25:09;;;;;;;6.60;4.15;;;16.70;99.90;;;;;;5094597;28;20165;-49
2023/07/20 04:27:35;;;;;;;8.95;3.90;;;16.80;99.90;;;;;;5067162;28;20174;-49
2023/07/20 04:30:02;;;;;;;10.90;4.50;;;16.80;99.90;;;;;;5074171;28;20640;-50
2023/07/20 04:32:27;;;;;;;8.15;4.03;;;16.90;99.90;;;;;;5074387;28;20210;-50
2023/07/20 04:34:53;;;;;;;7.10;4.35;;;16.80;99.90;;;;;;5074055;28;20177;-50
2023/07/20 04:37:19;;;;;;;6.88;4.13;;;16.90;99.90;;;;;;5074470;28;20219;-50
2023/07/20 04:39:44;;;;;;;11.15;4.05;;;17.00;99.90;;;;;;5074136;28;20521;-49
2023/07/20 04:42:10;;;;;;;7.13;4.10;;;17.00;99.90;;;;;;5074103;28;20177;-50
2023/07/20 04:44:35;;;;;;;5.90;4.10;;;17.00;99.90;;;;;;5074298;28;20177;-50
2023/07/20 04:47:02;;;;;;;7.20;4.45;;;16.90;99.90;;;;;;5066968;28;20177;-50
2023/07/20 04:49:27;;;;;;;7.65;3.97;;;16.90;99.90;;;;;;5074284;28;20167;-50
2023/07/20 04:51:54;;;;;;;8.65;4.40;;;16.90;99.90;;;;;;5079616;28;20205;-50
2023/07/20 04:54:19;;;;;;;11.52;4.00;;;17.00;99.90;;;;;;5091973;28;20245;-49
2023/07/20 04:56:45;;;;;;;11.50;4.35;;;16.90;99.90;;;;;;5074231;28;20170;-50
2023/07/20 04:59:11;;;;;;;8.23;4.43;;;16.90;99.90;;;;;;5073826;28;20174;-50
2023/07/20 05:01:36;;;;;;;7.18;4.05;;;16.90;99.90;;;;;;5072952;28;20169;-49
2023/07/20 05:04:02;;;;;;;7.00;5.15;;;16.90;99.90;;;;;;5074022;28;20252;-50
2023/07/20 05:06:27;;;;;;;10.40;4.70;;;17.00;99.90;;;;;;5074020;28;20572;-50
2023/07/20 05:08:53;;;;;;;8.73;4.65;;;17.10;99.90;;;;;;5073765;28;20162;-50
2023/07/20 05:11:19;;;;;;;9.88;4.18;;;17.10;99.90;;;;;;5074110;28;20293;-50
2023/07/20 05:13:45;;;;;;;10.55;4.82;;;17.20;99.90;;;;;;5073660;28;20193;-51
2023/07/20 05:16:11;;;;;;;14.73;4.50;;;17.30;99.90;;;;;;5073612;28;20181;-50
2023/07/20 05:18:36;;;;;;;9.73;4.60;;;17.40;99.90;;;;;;5074597;28;20181;-50
2023/07/20 05:21:02;;;;;;;11.15;4.50;;;17.50;99.90;;;;;;5088145;28;20169;-50
2023/07/20 05:23:27;;;;;;;9.77;4.63;;;17.60;99.90;;;;;;5074507;28;20182;-50
2023/07/20 05:25:58;;;;;;;13.07;5.30;;;17.70;99.90;;;;;;5073660;28;20165;-50
2023/07/20 05:28:24;;;;;;;10.27;4.38;;;17.60;99.90;;;;;;5073303;28;20162;-50
2023/07/20 05:30:53;;;;;;;9.65;5.05;;;17.60;99.90;;;;;;5073716;28;20166;-50
2023/07/20 05:33:20;;;;;;;9.30;4.95;;;17.70;99.90;;;;;;5073630;28;20197;-50
2023/07/20 05:35:45;;;;;;;10.00;5.18;;;17.70;99.90;;;;;;5073205;28;20165;-50
2023/07/20 05:38:11;;;;;;;8.52;4.70;;;17.70;99.90;;;;;;5073671;28;20178;-50
2023/07/20 05:40:44;;;;;;;8.35;4.85;;;17.70;99.90;;;;;;5079641;28;20201;-50
2023/07/20 05:43:10;;;;;;;8.32;5.30;;;17.70;99.90;;;;;;5093296;28;20166;-50
2023/07/20 05:45:36;;;;;;;8.52;5.30;;;17.80;99.90;;;;;;5093612;28;20177;-50
2023/07/20 05:48:01;;;;;;;7.43;5.05;;;17.90;99.90;;;;;;5076814;28;20177;-50
2023/07/20 05:50:27;;;;;;;10.77;6.05;;;17.80;99.90;;;;;;5072902;28;20635;-50
2023/07/20 05:52:54;;;;;;;8.05;5.60;;;17.90;99.90;;;;;;5072996;28;20263;-50
2023/07/20 05:55:20;;;;;;;10.00;5.75;;;18.10;99.90;;;;;;5055478;28;20158;-50
2023/07/20 05:57:47;;;;;;;13.45;6.57;;;18.10;99.90;;;;;;5072694;28;20170;-50
2023/07/20 06:00:13;;;;;;;12.23;6.55;;;18.00;99.90;;;;;;5072932;28;20578;-50
2023/07/20 06:02:40;;;;;;;10.20;6.53;;;18.10;99.90;;;;;;5085709;28;20260;-50
2023/07/20 06:05:09;;;;;;;7.63;6.50;;;18.30;99.90;;;;;;5080929;28;20170;-50
2023/07/20 06:07:36;;;;;;;12.10;6.55;;;18.20;99.90;;;;;;5072714;28;20178;-50
2023/07/20 06:10:02;;;;;;;11.75;7.28;;;18.30;99.90;;;;;;5072499;28;20202;-50
2023/07/20 06:12:28;;;;;;;14.85;7.15;;;18.40;99.90;;;;;;5072181;28;20248;-50
2023/07/20 06:14:53;;;;;;;9.38;7.07;;;18.40;99.90;;;;;;5072443;28;20584;-50
2023/07/20 06:17:19;;;;;;;12.90;7.57;;;18.50;99.90;;;;;;5072729;28;20177;-50
2023/07/20 06:19:44;;;;;;;10.48;6.97;;;18.50;99.90;;;;;;5072271;28;20249;-50
2023/07/20 06:22:10;;;;;;;10.15;7.75;;;18.60;99.90;;;;;;5072231;28;20177;-50
2023/07/20 06:24:35;;;;;;;11.52;7.78;;;18.60;99.90;;;;;;5078555;28;20177;-50
2023/07/20 06:27:01;;;;;;;9.57;7.82;;;18.50;99.90;;;;;;5072227;28;20177;-50
2023/07/20 06:29:26;;;;;;;9.48;8.10;;;18.50;99.90;;;;;;5054263;28;20166;-50
2023/07/20 06:31:52;;;;;;;11.30;8.02;;;18.50;99.90;;;;;;5072075;28;20220;-50
2023/07/20 06:34:17;;;;;;;10.50;8.40;;;18.60;99.90;;;;;;5072729;28;20241;-50
2023/07/20 06:36:43;;;;;;;14.18;7.40;;;18.60;99.90;;;;;;5071887;28;20193;-50
2023/07/20 06:39:09;;;;;;;10.82;7.78;;;18.80;99.90;;;;;;5071942;28;20162;-50
2023/07/20 06:41:34;;;;;;;12.02;7.80;;;18.90;99.90;;;;;;5074271;28;20181;-50
2023/07/20 06:44:00;;;;;;;10.45;8.20;;;19.10;99.90;;;;;;5092255;28;20157;-50
2023/07/20 06:46:26;;;;;;;8.95;7.80;;;19.20;99.90;;;;;;5092105;28;20653;-49
2023/07/20 06:48:51;;;;;;;11.38;9.27;;;19.20;99.90;;;;;;5092104;28;20164;-50
2023/07/20 06:51:17;;;;;;;10.43;9.43;;;19.20;99.90;;;;;;5092367;28;20177;-50
2023/07/20 06:53:43;;;;;;;11.63;9.07;;;19.50;99.90;;;;;;5083117;28;20252;-50
2023/07/20 06:56:09;;;;;;;11.52;7.50;;;19.50;99.90;;;;;;5071746;28;20202;-50
2023/07/20 06:58:35;;;;;;;10.80;6.97;;;19.80;99.90;;;;;;5071696;28;20199;-50
2023/07/20 07:01:05;;;;;;;10.38;7.55;;;19.90;99.90;;;;;;5071931;28;20162;-50
2023/07/20 07:03:31;;;;;;;11.32;7.75;;;19.70;99.90;;;;;;5071941;28;20212;-50
2023/07/20 07:05:56;;;;;;;10.23;8.10;;;19.80;99.90;;;;;;5071629;28;20190;-50
2023/07/20 07:08:22;;;;;;;9.23;7.38;;;19.70;99.90;;;;;;5077555;28;20219;-50
2023/07/20 07:10:47;;;;;;;11.05;7.95;;;19.70;99.90;;;;;;5091684;28;20262;-50
2023/07/20 07:13:13;;;;;;;9.52;7.53;;;19.50;99.90;;;;;;5091612;28;20201;-50
2023/07/20 07:15:38;;;;;;;9.30;7.50;;;19.50;99.90;;;;;;5091612;28;20170;-49
2023/07/20 07:18:04;;;;;;;15.35;7.80;;;19.40;99.90;;;;;;5091649;28;20264;-49
2023/07/20 07:20:29;;;;;;;11.38;7.13;;;19.30;99.90;;;;;;5091550;28;20252;-50
2023/07/20 07:22:56;;;;;;;13.75;7.82;;;19.40;99.90;;;;;;5091825;28;20177;-50
2023/07/20 07:25:22;;;;;;;18.67;7.78;;;19.40;99.90;;;;;;5091348;28;20173;-50
2023/07/20 07:27:48;;;;;;;14.07;7.03;;;19.20;99.90;;;;;;5092004;28;20520;-50
2023/07/20 07:30:13;;;;;;;9.48;7.03;;;19.20;99.90;;;;;;5091543;28;20161;-50
2023/07/20 07:32:39;;;;;;;11.65;7.53;;;19.20;99.90;;;;;;5091462;28;20201;-49
2023/07/20 07:35:05;;;;;;;12.07;6.82;;;19.40;99.90;;;;;;5091503;28;20169;-49
2023/07/20 07:37:31;;;;;;;12.93;7.50;;;19.50;99.90;;;;;;5078999;28;20177;-49
2023/07/20 07:39:57;;;;;;;11.77;7.78;;;19.30;99.90;;;;;;5071227;28;20174;-49
2023/07/20 07:42:23;;;;;;;12.07;7.82;;;19.10;99.90;;;;;;5071195;28;20169;-49
2023/07/20 07:44:48;;;;;;;12.80;7.10;;;19.10;99.90;;;;;;5071866;28;20545;-49
2023/07/20 07:47:14;;;;;;;10.35;7.30;;;19.20;99.90;;;;;;5071237;28;20619;-49
2023/07/20 07:49:40;;;;;;;8.38;5.93;;;19.30;99.90;;;;;;5071367;28;20554;-49
2023/07/20 07:52:06;;;;;;;11.50;5.22;;;19.60;99.90;;;;;;5056219;28;20193;-49
2023/07/20 07:54:31;;;;;;;5.88;5.03;;;19.80;99.90;;;;;;5091291;28;20176;-49
2023/07/20 07:56:57;;;;;;;6.40;4.63;;;19.80;99.90;;;;;;5091242;28;20165;-49
2023/07/20 07:59:22;;;;;;;6.38;4.07;;;20.00;99.90;;;;;;5077589;28;20261;-49
2023/07/20 08:01:48;;;;;;;6.35;3.95;;;20.00;99.90;;;;;;5071472;28;20220;-49
2023/07/20 08:04:13;;;;;;;8.43;4.05;;;20.10;99.90;;;;;;5070977;28;20174;-49
2023/07/20 08:06:39;;;;;;;6.90;4.47;;;20.20;99.90;;;;;;5070931;28;20162;-49
2023/07/20 08:09:05;;;;;;;7.43;4.85;;;20.50;99.90;;;;;;5071062;28;20169;-49
2023/07/20 08:11:32;;;;;;;8.27;4.50;;;20.60;99.90;;;;;;5070710;28;20233;-49
2023/07/20 08:14:00;;;;;;;7.75;4.47;;;20.80;99.90;;;;;;5071146;28;20178;-49
2023/07/20 08:16:25;;;;;;;13.00;4.30;;;21.30;99.90;;;;;;5070856;28;20212;-49
2023/07/20 08:18:51;;;;;;;8.38;4.47;;;21.30;99.90;;;;;;5082080;28;20197;-49
2023/07/20 08:21:17;;;;;;;10.45;4.40;;;20.90;99.90;;;;;;5091692;28;20177;-49
2023/07/20 08:23:42;;;;;;;3.15;2.65;;;20.80;99.90;;;;;;5086771;28;20166;-49
2023/07/20 08:26:08;;;;;;;2.88;2.10;;;21.00;99.90;;;;;;5070616;28;20199;-49
2023/07/20 08:28:34;;;;;;;4.85;2.95;;;21.30;99.90;;;;;;5059061;28;20172;-49
2023/07/20 08:31:00;;;;;;;7.97;3.10;;;21.60;99.90;;;;;;5072503;28;20170;-49
2023/07/20 08:33:25;;;;;;;2.60;2.40;;;21.30;99.90;;;;;;5090799;28;20209;-49
2023/07/20 08:35:52;;;;;;;5.18;2.95;;;21.30;99.90;;;;;;5090943;28;20211;-49
2023/07/20 08:38:17;;;;;;;5.47;2.63;;;21.70;99.90;;;;;;5094127;28;20253;-49
2023/07/20 08:40:45;;;;;;;5.55;3.10;;;21.90;99.90;;;;;;5090070;28;20186;-49
2023/07/20 08:43:11;;;;;;;4.03;2.70;;;22.00;99.90;;;;;;5074529;28;20555;-49
2023/07/20 08:45:39;;;;;;;7.15;2.97;;;22.10;99.90;;;;;;5074504;28;20174;-50
2023/07/20 08:48:06;;;;;;;4.18;2.58;;;22.30;99.90;;;;;;5074197;28;20174;-50
2023/07/20 08:50:33;;;;;;;7.93;2.28;;;22.10;99.90;;;;;;5074115;28;20174;-50
2023/07/20 08:53:00;;;;;;;3.47;2.10;;;21.20;99.90;;;;;;5074108;28;20554;-50
2023/07/20 08:55:30;;;;;;;3.88;2.00;;;21.10;99.90;;;;;;5073986;28;20227;-50
2023/07/20 08:57:57;;;;;;;7.55;2.78;;;21.20;99.90;;;;;;5081857;28;20205;-50
2023/07/20 09:00:24;;;;;;;2.85;2.00;;;21.80;99.90;;;;;;5094265;28;20215;-49
2023/07/20 09:02:52;;;;;;;3.47;2.40;;;22.10;99.90;;;;;;5082276;28;20231;-50
2023/07/20 09:05:18;;;;;;;2.85;2.00;;;22.50;99.90;;;;;;5074345;28;20201;-49
2023/07/20 09:07:44;;;;;;;3.83;2.42;;;22.70;99.90;;;;;;5073685;28;20190;-49
2023/07/20 09:10:10;;;;;;;4.70;2.30;;;22.40;99.90;;;;;;5073645;28;20666;-49
2023/07/20 09:12:40;;;;;;;3.25;1.75;;;22.20;99.90;;;;;;5073395;28;20796;-49
2023/07/20 09:15:07;;;;;;;5.10;2.33;;;22.30;99.90;;;;;;5073705;28;20188;-49
2023/07/20 09:17:33;;;;;;;2.42;1.60;;;22.30;99.90;;;;;;5069977;28;20185;-49
2023/07/20 09:20:01;;;;;;;2.63;2.08;;;22.10;99.90;;;;;;5093720;28;20172;-49
2023/07/20 09:22:30;;;;;;;2.83;1.80;;;22.20;99.90;;;;;;5093689;28;20169;-49
2023/07/20 09:24:56;;;;;;;3.42;2.22;;;22.40;99.90;;;;;;5093495;28;20223;-49
2023/07/20 09:27:21;;;;;;;4.22;2.20;;;22.20;99.90;;;;;;5093641;28;20169;-49
2023/07/20 09:29:51;;;;;;;3.85;2.10;;;21.70;99.90;;;;;;5094087;28;20180;-49
2023/07/20 09:32:21;;;;;;;2.65;2.10;;;21.80;99.90;;;;;;5093821;28;20201;-49
2023/07/20 09:34:47;;;;;;;5.20;2.33;;;22.00;99.90;;;;;;5080557;28;20211;-49
2023/07/20 09:37:12;;;;;;;3.50;1.70;;;22.40;99.90;;;;;;5073321;28;20170;-49
2023/07/20 09:39:45;;;;;;;2.80;1.73;;;23.00;99.90;;;;;;5073147;28;20181;-50
2023/07/20 09:42:13;;;;;;;3.60;2.15;;;23.20;99.90;;;;;;5077560;28;20177;-50
2023/07/20 09:44:39;;;;;;;3.55;1.60;;;23.10;99.90;;;;;;5093500;28;20161;-49
2023/07/20 09:47:05;;;;;;;3.58;1.65;;;23.40;99.90;;;;;;5092781;28;20655;-49
2023/07/20 09:49:31;;;;;;;4.15;1.55;;;23.60;99.90;;;;;;5093504;28;20248;-49
2023/07/20 09:52:00;;;;;;;1.85;1.73;;;23.40;99.90;;;;;;5093147;28;20215;-49
2023/07/20 09:54:27;;;;;;;2.42;1.50;;;23.20;99.90;;;;;;5093415;28;20177;-49
2023/07/20 09:56:54;;;;;;;1.75;1.55;;;23.70;99.90;;;;;;5093294;28;20165;-50
2023/07/20 09:59:19;;;;;;;2.70;1.70;;;24.00;99.90;;;;;;5073902;28;20185;-49
2023/07/20 10:01:47;;;;;;;2.40;1.50;;;24.40;99.90;;;;;;5073148;28;20255;-49
2023/07/20 10:04:14;;;;;;;2.20;1.25;;;24.20;99.90;;;;;;5072645;28;20256;-49
2023/07/20 10:06:46;;;;;;;3.30;1.48;;;23.80;99.90;;;;;;5072844;28;20511;-49
2023/07/20 10:09:14;;;;;;;3.38;1.60;;;24.10;99.90;;;;;;5072557;28;20162;-49
2023/07/20 10:11:50;;;;;;;2.38;1.67;;;23.90;99.90;;;;;;5085321;28;20564;-49
2023/07/20 10:14:20;;;;;;;3.83;1.70;;;23.90;99.90;;;;;;5093141;28;20565;-49
2023/07/20 10:16:55;;;;;;;4.45;1.75;;;23.70;99.90;;;;;;5093105;28;20206;-49
2023/07/20 10:19:30;;;;;;;3.25;2.20;;;24.10;99.90;;;;;;5092557;28;20164;-49
2023/07/20 10:22:13;;;;;;;2.97;2.00;;;24.50;99.90;;;;;;5092632;28;20229;-49
2023/07/20 10:24:41;;;;;;;2.20;1.40;;;24.30;99.90;;;;;;5092503;28;20523;-49
2023/07/20 10:27:07;;;;;;;1.77;1.45;;;24.20;99.90;;;;;;5092458;28;20215;-49
2023/07/20 10:29:33;;;;;;;3.55;1.70;;;24.10;99.90;;;;;;5092429;28;20192;-50
2023/07/20 10:31:59;;;;;;;1.60;1.45;;;23.90;99.90;;;;;;5092244;28;20189;-49
2023/07/20 10:34:25;;;;;;;2.25;1.70;;;24.00;99.90;;;;;;5092412;28;20516;-49
2023/07/20 10:36:52;;;;;;;1.60;1.50;;;24.00;99.90;;;;;;5092346;28;20180;-49
2023/07/20 10:39:27;;;;;;;2.28;1.90;;;24.40;99.90;;;;;;5093007;28;20176;-49
2023/07/20 10:42:09;;;;;;;2.60;1.80;;;24.70;99.90;;;;;;5077083;28;20679;-49
2023/07/20 10:44:39;;;;;;;2.10;1.67;;;24.50;99.90;;;;;;5071918;28;20173;-49
2023/07/20 10:47:12;;;;;;;3.30;1.58;;;24.60;99.90;;;;;;5071985;28;20172;-49
2023/07/20 10:50:01;;;;;;;2.75;1.63;;;24.60;99.90;;;;;;5053895;28;20223;-49
2023/07/20 10:52:36;;;;;;;3.58;2.65;;;24.60;99.90;;;;;;5053795;28;20232;-49
2023/07/20 10:55:11;;;;;;;2.85;1.60;;;24.50;99.90;;;;;;5082198;28;20225;-49
2023/07/20 10:57:37;;;;;;;3.20;1.20;;;24.40;99.90;;;;;;5071155;28;20227;-49
2023/07/20 11:00:14;;;;;;;4.30;1.52;;;24.90;99.90;;;;;;5070922;28;20162;-49
2023/07/20 11:02:59;;;;;;;1.60;1.50;;;25.00;99.90;;;;;;5053857;28;20165;-49
2023/07/20 11:05:35;;;;;;;2.40;1.45;;;24.80;99.90;;;;;;5071905;28;20169;-49
2023/07/20 11:08:03;;;;;;;1.75;1.55;;;25.10;99.90;;;;;;5071905;28;20165;-49
2023/07/20 11:10:29;;;;;;;1.65;1.50;;;25.20;99.90;;;;;;5071429;28;20154;-49
2023/07/20 11:13:17;;;;;;;1.80;1.67;;;25.00;99.90;;;;;;5071444;28;20205;-49
2023/07/20 11:15:56;;;;;;;1.85;1.38;;;25.00;99.90;;;;;;5071530;28;20633;-49
2023/07/20 11:18:25;;;;;;;3.83;1.50;;;24.60;99.90;;;;;;5071434;28;20252;-49
2023/07/20 11:20:51;;;;;;;3.97;1.67;;;24.60;99.90;;;;;;5071440;28;20641;-49
2023/07/20 11:23:17;;;;;;;2.13;1.52;;;24.40;99.90;;;;;;5071794;28;20184;-49
2023/07/20 11:25:43;;;;;;;2.05;1.25;;;24.40;99.90;;;;;;5071403;28;20614;-49
2023/07/20 11:28:10;;;;;;;2.78;1.50;;;24.10;99.90;;;;;;5088651;28;20168;-49
2023/07/20 11:30:38;;;;;;;2.95;1.63;;;24.10;99.90;;;;;;5091400;28;20180;-49
2023/07/20 11:33:04;;;;;;;2.78;1.35;;;24.20;99.90;;;;;;5091110;28;20269;-49
2023/07/20 11:35:29;;;;;;;1.60;1.50;;;24.30;99.90;;;;;;5091793;28;20624;-49
2023/07/20 11:37:55;;;;;;;1.50;1.17;;;24.10;99.90;;;;;;5091567;28;20168;-49
2023/07/20 11:40:22;;;;;;;2.38;1.20;;;24.00;99.90;;;;;;5091382;28;20184;-49
2023/07/20 11:42:50;;;;;;;2.03;1.30;;;24.00;99.90;;;;;;5091820;28;20211;-49
2023/07/20 11:45:19;;;;;;;1.83;1.30;;;23.80;99.90;;;;;;5092008;28;20171;-49
2023/07/20 11:47:45;;;;;;;1.95;1.20;;;23.70;99.90;;;;;;5092019;28;20169;-49
2023/07/20 11:50:13;;;;;;;1.85;1.60;;;23.70;99.90;;;;;;5091348;28;20207;-49
2023/07/20 11:52:40;;;;;;;1.40;1.30;;;23.60;99.90;;;;;;5091488;28;20208;-49
2023/07/20 11:55:07;;;;;;;3.30;1.70;;;23.60;99.90;;;;;;5091272;28;20165;-49
2023/07/20 11:57:32;;;;;;;9.43;1.58;;;23.70;99.90;;;;;;5090895;28;20173;-49
2023/07/20 12:00:05;;;;;;;5.57;1.45;;;23.90;99.90;;;;;;5091237;28;20222;-49
2023/07/20 12:02:30;;;;;;;2.50;1.38;;;23.80;99.90;;;;;;5091243;28;20173;-49
2023/07/20 12:04:57;;;;;;;1.85;1.30;;;24.40;99.90;;;;;;5091239;28;20176;-49
2023/07/20 12:07:22;;;;;;;15.85;6.55;;;24.80;99.90;;;;;;5090936;28;20169;-49
2023/07/20 12:10:08;;;;;;;8.13;2.45;;;24.90;99.90;;;;;;5091515;28;20523;-49
2023/07/20 12:12:37;;;;;;;3.63;1.67;;;24.90;99.90;;;;;;5094924;28;20220;-50
2023/07/20 12:15:23;;;;;;;4.60;1.30;;;24.60;99.90;;;;;;5095084;28;20172;-51
2023/07/20 12:17:53;;;;;;;2.08;1.33;;;24.50;99.90;;;;;;5095435;28;20157;-50
2023/07/20 12:20:33;;;;;;;1.88;1.58;;;24.30;99.90;;;;;;5095338;28;20207;-50
2023/07/20 12:23:10;;;;;;;3.72;2.17;;;24.40;99.90;;;;;;5094938;28;20165;-50
2023/07/20 12:25:46;;;;;;;1.65;1.40;;;24.20;99.90;;;;;;5094840;28;20233;-50
2023/07/20 12:28:12;;;;;;;4.22;1.83;;;23.90;99.90;;;;;;5076486;28;20259;-50
2023/07/20 12:30:39;;;;;;;3.97;1.58;;;23.70;99.90;;;;;;5056565;28;20165;-49
2023/07/20 12:33:05;;;;;;;1.30;1.20;;;23.60;99.90;;;;;;5074323;28;20205;-49
2023/07/20 12:35:33;;;;;;;5.10;1.75;;;23.40;99.90;;;;;;5074360;28;20628;-49
2023/07/20 12:38:00;;;;;;;1.63;1.42;;;23.20;99.90;;;;;;5074329;28;20181;-49
2023/07/20 12:40:25;;;;;;;3.75;1.60;;;23.10;99.90;;;;;;5074330;28;20637;-49
2023/07/20 12:42:51;;;;;;;3.80;1.27;;;23.10;99.90;;;;;;5074406;28;20303;-49
2023/07/20 12:45:17;;;;;;;1.70;1.50;;;23.30;99.90;;;;;;5074572;28;20520;-49
2023/07/20 12:47:43;;;;;;;1.50;1.40;;;23.20;99.90;;;;;;5074147;28;20214;-50